createdAt,value
2022-08-21T00:00:28.267Z,101136.63
2022-08-21T00:03:05.717Z,101132.22
2022-08-21T00:05:36.716Z,101137.50
2022-08-21T00:08:04.482Z,101123.34
2022-08-21T00:10:32.054Z,101134.06
2022-08-21T00:12:59.341Z,101119.19
2022-08-21T00:15:30.458Z,101122.06
2022-08-21T00:17:58.223Z,101114.50
2022-08-21T00:20:25.633Z,101122.25
2022-08-21T00:22:52.753Z,101111.97
2022-08-21T00:25:24.293Z,101106.38
2022-08-21T00:27:53.615Z,101120.38
2022-08-21T00:30:23.342Z,101113.53
2022-08-21T00:32:51.394Z,101123.09
2022-08-21T00:35:21.950Z,101114.25
2022-08-21T00:37:49.710Z,101116.69
2022-08-21T00:40:24.322Z,101109.25
2022-08-21T00:42:53.650Z,101114.41
2022-08-21T00:45:23.522Z,101102.81
2022-08-21T00:47:52.671Z,101104.53
2022-08-21T00:50:21.942Z,101108.81
2022-08-21T00:52:52.295Z,101109.13
2022-08-21T00:55:22.741Z,101119.28
2022-08-21T00:57:55.787Z,101117.75
2022-08-21T01:00:33.132Z,101119.47
2022-08-21T01:03:07.466Z,101115.75
2022-08-21T01:05:36.962Z,101114.31
2022-08-21T01:08:05.902Z,101123.31
2022-08-21T01:10:34.537Z,101113.03
2022-08-21T01:13:01.995Z,101116.34
2022-08-21T01:15:35.201Z,101120.75
2022-08-21T01:18:09.553Z,101126.78
2022-08-21T01:20:39.101Z,101129.50
2022-08-21T01:23:07.599Z,101132.22
2022-08-21T01:25:35.733Z,101134.94
2022-08-21T01:28:12.626Z,101124.06
2022-08-21T01:30:40.792Z,101121.66
2022-08-21T01:33:07.821Z,101108.34
2022-08-21T01:35:35.122Z,101102.19
2022-08-21T01:38:02.090Z,101118.50
2022-08-21T01:40:29.276Z,101116.38
2022-08-21T01:42:56.407Z,101110.81
2022-08-21T01:45:23.454Z,101104.78
2022-08-21T01:47:50.367Z,101102.50
2022-08-21T01:50:21.064Z,101117.50
2022-08-21T01:52:48.802Z,101086.78
2022-08-21T01:55:17.431Z,101087.91
2022-08-21T01:57:45.830Z,101101.50
2022-08-21T02:00:16.362Z,101100.66
2022-08-21T02:02:43.969Z,101098.94
2022-08-21T02:05:13.924Z,101100.91
2022-08-21T02:07:53.317Z,101114.06
2022-08-21T02:10:27.614Z,101108.22
2022-08-21T02:12:57.066Z,101099.81
2022-08-21T02:15:24.498Z,101102.78
2022-08-21T02:17:56.423Z,101107.81
2022-08-21T02:20:27.118Z,101100.09
2022-08-21T02:22:55.676Z,101101.22
2022-08-21T02:25:24.795Z,101090.63
2022-08-21T02:27:52.328Z,101086.19
2022-08-21T02:30:29.171Z,101098.50
2022-08-21T02:32:57.117Z,101092.66
2022-08-21T02:35:25.040Z,101085.19
2022-08-21T02:37:57.288Z,101092.38
2022-08-21T02:40:31.671Z,101090.22
2022-08-21T02:43:00.312Z,101082.91
2022-08-21T02:45:28.042Z,101086.78
2022-08-21T02:48:00.445Z,101076.06
2022-08-21T02:50:32.285Z,101082.91
2022-08-21T02:52:59.956Z,101090.06
2022-08-21T02:55:30.140Z,101089.06
2022-08-21T02:57:58.694Z,101081.34
2022-08-21T03:00:29.170Z,101086.06
2022-08-21T03:02:57.296Z,101077.06
2022-08-21T03:05:27.266Z,101078.22
2022-08-21T03:07:54.828Z,101069.75
2022-08-21T03:10:22.869Z,101074.34
2022-08-21T03:12:50.351Z,101083.34
2022-08-21T03:15:20.997Z,101077.34
2022-08-21T03:17:49.261Z,101086.63
2022-08-21T03:20:24.735Z,101074.06
2022-08-21T03:22:53.335Z,101075.19
2022-08-21T03:25:40.116Z,101079.75
2022-08-21T03:28:15.859Z,101072.91
2022-08-21T03:30:48.982Z,101070.72
2022-08-21T03:33:16.495Z,101077.47
2022-08-21T03:35:46.809Z,101069.88
2022-08-21T03:38:14.152Z,101079.03
2022-08-21T03:40:43.193Z,101074.88
2022-08-21T03:43:10.707Z,101076.44
2022-08-21T03:45:38.901Z,101077.31
2022-08-21T03:48:08.141Z,101073.72
2022-08-21T03:50:40.955Z,101081.03
2022-08-21T03:53:16.678Z,101069.44
2022-08-21T03:55:47.346Z,101087.72
2022-08-21T03:58:17.689Z,101091.47
2022-08-21T04:00:51.849Z,101080.28
2022-08-21T04:03:19.659Z,101092.88
2022-08-21T04:05:47.107Z,101095.59
2022-08-21T04:08:18.219Z,101097.72
2022-08-21T04:10:47.705Z,101097.00
2022-08-21T04:13:15.855Z,101104.00
2022-08-21T04:15:43.519Z,101102.28
2022-08-21T04:18:11.084Z,101095.00
2022-08-21T04:20:38.871Z,101100.16
2022-08-21T04:23:05.823Z,101096.44
2022-08-21T04:25:33.290Z,101101.03
2022-08-21T04:28:00.245Z,101098.88
2022-08-21T04:30:27.964Z,101097.72
2022-08-21T04:32:56.919Z,101103.59
2022-08-21T04:35:26.615Z,101107.19
2022-08-21T04:37:53.562Z,101096.75
2022-08-21T04:40:23.388Z,101115.16
2022-08-21T04:42:57.457Z,101106.56
2022-08-21T04:45:48.729Z,101113.28
2022-08-21T04:48:19.922Z,101113.84
2022-08-21T04:51:04.937Z,101112.00
2022-08-21T04:53:47.544Z,101126.88
2022-08-21T04:56:23.061Z,101125.56
2022-08-21T04:58:52.214Z,101120.44
2022-08-21T05:01:23.584Z,101124.47
2022-08-21T05:03:56.596Z,101118.03
2022-08-21T05:06:24.943Z,101117.19
2022-08-21T05:09:01.829Z,101129.22
2022-08-21T05:11:31.993Z,101127.34
2022-08-21T05:13:59.479Z,101121.50
2022-08-21T05:16:30.139Z,101119.25
2022-08-21T05:19:08.151Z,101112.34
2022-08-21T05:21:42.698Z,101132.69
2022-08-21T05:24:10.447Z,101122.81
2022-08-21T05:26:43.767Z,101126.66
2022-08-21T05:29:15.316Z,101140.25
2022-08-21T05:31:44.570Z,101138.09
2022-08-21T05:34:13.375Z,101136.81
2022-08-21T05:36:43.344Z,101133.81
2022-08-21T05:39:10.267Z,101133.09
2022-08-21T05:41:37.206Z,101134.53
2022-08-21T05:44:04.454Z,101140.53
2022-08-21T05:46:37.572Z,101147.66
2022-08-21T05:49:04.953Z,101128.19
2022-08-21T05:51:32.246Z,101145.50
2022-08-21T05:53:59.202Z,101134.41
2022-08-21T05:56:26.332Z,101128.63
2022-08-21T05:58:53.280Z,101138.56
2022-08-21T06:01:20.963Z,101137.63
2022-08-21T06:03:47.907Z,101135.50
2022-08-21T06:06:14.885Z,101133.22
2022-08-21T06:08:41.849Z,101127.06
2022-08-21T06:11:09.650Z,101127.53
2022-08-21T06:13:37.873Z,101127.81
2022-08-21T06:16:15.703Z,101126.56
2022-08-21T06:18:45.513Z,101145.97
2022-08-21T06:21:14.609Z,101137.78
2022-08-21T06:23:42.947Z,101137.78
2022-08-21T06:26:11.484Z,101140.13
2022-08-21T06:28:38.545Z,101142.75
2022-08-21T06:31:22.049Z,101143.16
2022-08-21T06:33:49.651Z,101144.78
2022-08-21T06:36:17.065Z,101131.31
2022-08-21T06:38:50.786Z,101137.34
2022-08-21T06:41:24.210Z,101130.75
2022-08-21T06:43:54.246Z,101127.22
2022-08-21T06:46:21.351Z,101125.78
2022-08-21T06:48:49.269Z,101127.84
2022-08-21T06:51:16.288Z,101136.44
2022-08-21T06:53:43.221Z,101135.59
2022-08-21T06:56:10.182Z,101130.84
2022-08-21T06:58:37.265Z,101133.91
2022-08-21T07:01:05.460Z,101139.09
2022-08-21T07:03:37.814Z,101138.78
2022-08-21T07:06:07.300Z,101131.75
2022-08-21T07:08:35.289Z,101130.69
2022-08-21T07:11:09.590Z,101123.34
2022-08-21T07:13:36.716Z,101118.16
2022-08-21T07:16:04.506Z,101122.09
2022-08-21T07:18:32.116Z,101122.25
2022-08-21T07:20:59.149Z,101108.88
2022-08-21T07:23:32.792Z,101126.53
2022-08-21T07:26:03.154Z,101111.13
2022-08-21T07:28:32.097Z,101124.09
2022-08-21T07:31:01.591Z,101119.47
2022-08-21T07:33:32.463Z,101121.34
2022-08-21T07:35:59.764Z,101117.75
2022-08-21T07:38:27.850Z,101122.34
2022-08-21T07:40:59.691Z,101123.16
2022-08-21T07:43:27.517Z,101119.00
2022-08-21T07:45:55.374Z,101107.59
2022-08-21T07:48:23.327Z,101115.00
2022-08-21T07:50:51.065Z,101107.22
2022-08-21T07:53:18.281Z,101109.91
2022-08-21T07:55:45.457Z,101093.09
2022-08-21T07:58:12.416Z,101105.59
2022-08-21T08:00:40.668Z,101112.38
2022-08-21T08:03:07.699Z,101121.25
2022-08-21T08:05:37.412Z,101109.31
2022-08-21T08:08:04.665Z,101111.69
2022-08-21T08:10:31.658Z,101120.41
2022-08-21T08:12:59.201Z,101111.41
2022-08-21T08:15:28.237Z,101097.00
2022-08-21T08:17:56.425Z,101116.53
2022-08-21T08:20:26.135Z,101116.38
2022-08-21T08:22:54.810Z,101118.44
2022-08-21T08:25:23.861Z,101109.44
2022-08-21T08:27:51.282Z,101107.19
2022-08-21T08:30:20.712Z,101104.00
2022-08-21T08:32:49.037Z,101108.72
2022-08-21T08:35:16.800Z,101108.72
2022-08-21T08:37:46.777Z,101100.75
2022-08-21T08:40:34.176Z,101104.25
2022-08-21T08:43:01.393Z,101085.25
2022-08-21T08:45:40.446Z,101088.53
2022-08-21T08:48:15.849Z,101082.56
2022-08-21T08:50:50.838Z,101084.25
2022-08-21T08:53:51.520Z,101087.88
2022-08-21T08:56:24.373Z,101084.13
2022-08-21T08:58:54.215Z,101083.28
2022-08-21T09:01:21.953Z,101080.41
2022-08-21T09:03:51.214Z,101086.69
2022-08-21T09:06:39.565Z,101082.06
2022-08-21T09:09:12.550Z,101078.31
2022-08-21T09:12:18.311Z,101078.22
2022-08-21T09:15:19.560Z,101064.75
2022-08-21T09:18:26.452Z,101080.03
2022-08-21T09:21:13.251Z,101072.31
2022-08-21T09:24:01.597Z,101072.34
2022-08-21T09:26:44.561Z,101073.25
2022-08-21T09:29:13.289Z,101045.72
2022-08-21T09:31:40.228Z,101054.16
2022-08-21T09:34:14.804Z,101072.34
2022-08-21T09:36:50.474Z,101062.25
2022-08-21T09:39:39.901Z,101063.75
2022-08-21T09:42:10.659Z,101058.78
2022-08-21T09:44:44.305Z,101057.56
2022-08-21T09:47:15.974Z,101036.28
2022-08-21T09:49:44.427Z,101040.63
2022-08-21T09:52:23.815Z,101044.31
2022-08-21T09:54:55.456Z,101049.47
2022-08-21T09:57:46.327Z,101041.69
2022-08-21T10:00:32.618Z,101042.13
2022-08-21T10:03:28.918Z,101039.19
2022-08-21T10:05:57.879Z,101035.88
2022-08-21T10:08:28.546Z,101041.84
2022-08-21T10:11:06.913Z,101043.34
2022-08-21T10:14:12.038Z,101035.44
2022-08-21T10:16:45.110Z,101040.53
2022-08-21T10:19:37.572Z,101038.44
2022-08-21T10:22:46.172Z,101035.91
2022-08-21T10:25:25.283Z,101023.31
2022-08-21T10:28:13.410Z,101027.84
2022-08-21T10:30:52.004Z,101022.28
2022-08-21T10:34:05.162Z,101031.63
2022-08-21T10:36:42.457Z,101027.16
2022-08-21T10:39:35.641Z,101025.44
2022-08-21T10:42:30.727Z,101015.03
2022-08-21T10:45:16.666Z,101006.97
2022-08-21T10:47:58.493Z,101028.22
2022-08-21T10:50:43.570Z,101022.91
2022-08-21T10:53:56.425Z,101001.63
2022-08-21T10:56:29.680Z,101008.56
2022-08-21T10:59:42.700Z,101014.44
2022-08-21T11:02:09.882Z,101011.84
2022-08-21T11:04:55.952Z,101017.94
2022-08-21T11:07:30.198Z,101023.53
2022-08-21T11:10:12.150Z,101020.38
2022-08-21T11:12:51.654Z,101017.34
2022-08-21T11:15:52.171Z,101012.69
2022-08-21T11:18:29.422Z,101010.38
2022-08-21T11:21:23.059Z,101017.16
2022-08-21T11:24:00.861Z,101009.00
2022-08-21T11:26:42.996Z,101006.84
2022-08-21T11:29:24.969Z,101001.69
2022-08-21T11:32:02.316Z,101010.03
2022-08-21T11:35:05.109Z,101010.63
2022-08-21T11:38:24.977Z,101012.19
2022-08-21T11:41:17.177Z,101017.47
2022-08-21T11:44:03.430Z,101018.97
2022-08-21T11:47:07.222Z,101015.03
2022-08-21T11:50:04.844Z,101011.00
2022-08-21T11:53:14.443Z,101011.44
2022-08-21T11:56:04.774Z,101008.88
2022-08-21T11:58:51.974Z,101004.00
2022-08-21T12:01:33.019Z,100999.88
2022-08-21T12:04:06.417Z,101003.22
2022-08-21T12:06:42.569Z,100996.00
2022-08-21T12:09:26.876Z,101001.84
2022-08-21T12:12:24.181Z,100999.69
2022-08-21T12:15:22.847Z,101004.75
2022-08-21T12:17:57.223Z,100999.59
2022-08-21T12:20:59.137Z,100998.19
2022-08-21T12:23:50.422Z,100995.34
2022-08-21T12:26:35.965Z,100999.56
2022-08-21T12:29:33.921Z,100991.16
2022-08-21T12:32:06.547Z,100989.28
2022-08-21T12:34:49.591Z,100981.53
2022-08-21T12:37:31.163Z,100984.81
2022-08-21T12:40:01.868Z,100979.81
2022-08-21T12:43:00.808Z,100975.81
2022-08-21T12:45:41.594Z,100977.28
2022-08-21T12:48:29.986Z,100985.31
2022-08-21T12:51:10.411Z,100981.66
2022-08-21T12:53:54.365Z,100975.41
2022-08-21T12:56:32.836Z,100987.91
2022-08-21T12:59:08.816Z,100968.38
2022-08-21T13:01:52.728Z,100982.41
2022-08-21T13:04:38.096Z,100974.84
2022-08-21T13:07:15.001Z,100966.63
2022-08-21T13:09:59.257Z,100969.56
2022-08-21T13:12:32.214Z,100967.47
2022-08-21T13:15:08.735Z,100972.97
2022-08-21T13:17:42.787Z,100977.63
2022-08-21T13:20:31.404Z,100970.78
2022-08-21T13:22:59.303Z,100976.00
2022-08-21T13:25:31.141Z,100976.56
2022-08-21T13:28:15.662Z,100967.84
2022-08-21T13:30:52.391Z,100961.66
2022-08-21T13:33:24.198Z,100960.00
2022-08-21T13:36:11.503Z,100961.78
2022-08-21T13:38:45.046Z,100966.47
2022-08-21T13:41:31.955Z,100962.50
2022-08-21T13:44:03.264Z,100964.13
2022-08-21T13:46:38.097Z,100954.06
2022-08-21T13:49:07.509Z,100954.78
2022-08-21T13:51:36.577Z,100954.91
2022-08-21T13:54:28.002Z,100960.22
2022-08-21T13:56:55.970Z,100961.44
2022-08-21T13:59:34.438Z,100958.50
2022-08-21T14:02:19.655Z,100965.63
2022-08-21T14:05:02.845Z,100962.94
2022-08-21T14:07:38.786Z,100961.09
2022-08-21T14:10:27.189Z,100966.88
2022-08-21T14:13:07.413Z,100954.19
2022-08-21T14:15:35.866Z,100973.16
2022-08-21T14:18:26.390Z,100968.44
2022-08-21T14:21:09.854Z,100964.25
2022-08-21T14:23:37.502Z,100959.91
2022-08-21T14:26:07.545Z,100961.88
2022-08-21T14:28:41.118Z,100947.34
2022-08-21T14:31:21.294Z,100963.19
2022-08-21T14:33:49.708Z,100953.19
2022-08-21T14:36:17.007Z,100951.09
2022-08-21T14:38:44.059Z,100963.41
2022-08-21T14:41:24.992Z,100967.09
2022-08-21T14:43:59.746Z,100966.94
2022-08-21T14:46:51.639Z,100969.19
2022-08-21T14:49:27.291Z,100975.16
2022-08-21T14:51:59.423Z,100969.19
2022-08-21T14:54:32.869Z,100979.59
2022-08-21T14:57:06.370Z,100969.38
2022-08-21T14:59:34.023Z,100960.97
2022-08-21T15:02:01.835Z,100954.59
2022-08-21T15:04:28.820Z,100950.53
2022-08-21T15:06:56.022Z,100958.00
2022-08-21T15:09:23.471Z,100967.91
2022-08-21T15:11:52.929Z,100964.81
2022-08-21T15:14:25.185Z,100971.31
2022-08-21T15:16:52.847Z,100970.41
2022-08-21T15:19:20.539Z,100969.22
2022-08-21T15:21:47.757Z,100967.78
2022-08-21T15:24:14.812Z,100949.75
2022-08-21T15:26:41.804Z,100960.16
2022-08-21T15:29:09.552Z,100949.06
2022-08-21T15:31:37.697Z,100966.38
2022-08-21T15:34:04.665Z,100955.72
2022-08-21T15:36:31.603Z,100967.44
2022-08-21T15:38:58.539Z,100964.66
2022-08-21T15:41:25.524Z,100965.06
2022-08-21T15:43:54.298Z,100961.00
2022-08-21T15:46:21.934Z,100971.78
2022-08-21T15:48:49.172Z,100963.06
2022-08-21T15:51:18.002Z,100960.84
2022-08-21T15:53:45.970Z,100957.22
2022-08-21T15:56:27.107Z,100967.25
2022-08-21T15:59:02.267Z,100971.44
2022-08-21T16:01:36.068Z,100973.00
2022-08-21T16:04:19.193Z,100975.44
2022-08-21T16:06:54.427Z,100965.13
2022-08-21T16:09:24.030Z,100970.03
2022-08-21T16:11:51.973Z,100977.72
2022-08-21T16:14:19.057Z,100969.91
2022-08-21T16:16:46.709Z,100965.03
2022-08-21T16:19:14.757Z,100979.72
2022-08-21T16:21:41.999Z,100972.97
2022-08-21T16:24:09.048Z,100962.78
2022-08-21T16:26:36.211Z,100970.19
2022-08-21T16:29:05.169Z,100979.34
2022-08-21T16:31:33.588Z,100967.44
2022-08-21T16:34:01.771Z,100967.22
2022-08-21T16:36:29.206Z,100972.09
2022-08-21T16:39:01.695Z,100969.97
2022-08-21T16:41:34.046Z,100969.34
2022-08-21T16:44:01.983Z,100960.44
2022-08-21T16:46:35.603Z,100962.75
2022-08-21T16:49:03.813Z,100969.56
2022-08-21T16:51:31.694Z,100962.09
2022-08-21T16:53:59.616Z,100963.81
2022-08-21T16:56:27.500Z,100964.88
2022-08-21T16:58:57.024Z,100972.97
2022-08-21T17:01:29.339Z,100969.78
2022-08-21T17:03:56.666Z,100968.50
2022-08-21T17:06:29.102Z,100968.72
2022-08-21T17:08:57.846Z,100961.94
2022-08-21T17:11:37.185Z,100967.66
2022-08-21T17:14:16.323Z,100967.88
2022-08-21T17:16:50.185Z,100974.03
2022-08-21T17:19:18.769Z,100967.44
2022-08-21T17:21:46.261Z,100966.81
2022-08-21T17:24:15.696Z,100969.56
2022-08-21T17:26:45.129Z,100975.44
2022-08-21T17:29:15.192Z,100975.47
2022-08-21T17:31:44.399Z,100974.81
2022-08-21T17:34:12.661Z,100971.84
2022-08-21T17:36:39.751Z,100971.41
2022-08-21T17:39:06.677Z,100972.91
2022-08-21T17:41:34.404Z,100972.69
2022-08-21T17:44:07.248Z,100972.25
2022-08-21T17:46:34.379Z,100968.88
2022-08-21T17:49:01.557Z,100964.78
2022-08-21T17:51:28.789Z,100977.75
2022-08-21T17:53:55.745Z,100983.66
2022-08-21T17:56:26.045Z,100981.53
2022-08-21T17:58:53.034Z,100954.03
2022-08-21T18:01:21.256Z,100971.88
2022-08-21T18:03:49.001Z,100972.06
2022-08-21T18:06:17.932Z,100973.53
2022-08-21T18:08:46.536Z,100975.19
2022-08-21T18:11:23.250Z,100976.84
2022-08-21T18:13:52.434Z,100977.03
2022-08-21T18:16:19.516Z,100975.69
2022-08-21T18:18:49.026Z,100982.59
2022-08-21T18:21:16.326Z,100979.13
2022-08-21T18:23:45.076Z,100991.34
2022-08-21T18:26:21.640Z,100991.72
2022-08-21T18:28:48.715Z,100987.41
2022-08-21T18:31:15.632Z,100994.34
2022-08-21T18:33:56.921Z,100988.81
2022-08-21T18:36:29.683Z,100980.56
2022-08-21T18:39:13.451Z,101000.88
2022-08-21T18:41:46.526Z,101009.66
2022-08-21T18:44:16.216Z,101009.78
2022-08-21T18:46:50.507Z,101011.78
2022-08-21T18:49:18.105Z,101003.66
2022-08-21T18:51:46.576Z,101004.19
2022-08-21T18:54:15.020Z,101018.53
2022-08-21T18:56:42.721Z,101024.78
2022-08-21T18:59:11.855Z,101019.41
2022-08-21T19:01:39.494Z,101032.88
2022-08-21T19:04:08.912Z,101033.78
2022-08-21T19:06:36.742Z,101029.94
2022-08-21T19:09:09.646Z,101032.13
2022-08-21T19:11:41.009Z,101027.09
2022-08-21T19:14:17.010Z,101033.16
2022-08-21T19:16:47.467Z,101033.47
2022-08-21T19:19:17.664Z,101044.16
2022-08-21T19:21:47.092Z,101048.88
2022-08-21T19:24:18.246Z,101028.47
2022-08-21T19:26:50.309Z,101050.38
2022-08-21T19:29:35.063Z,101053.00
2022-08-21T19:32:05.882Z,101048.13
2022-08-21T19:34:34.817Z,101056.44
2022-08-21T19:37:02.106Z,101036.16
2022-08-21T19:39:30.859Z,101045.06
2022-08-21T19:41:59.574Z,101039.44
2022-08-21T19:44:30.919Z,101046.66
2022-08-21T19:46:59.768Z,101054.00
2022-08-21T19:49:34.972Z,101051.78
2022-08-21T19:52:11.882Z,101060.44
2022-08-21T19:54:42.530Z,101053.06
2022-08-21T19:57:10.954Z,101054.56
2022-08-21T19:59:40.429Z,101055.81
2022-08-21T20:02:10.059Z,101058.94
2022-08-21T20:04:38.356Z,101052.97
2022-08-21T20:07:08.332Z,101059.13
2022-08-21T20:09:37.033Z,101066.03
2022-08-21T20:12:10.267Z,101059.56
2022-08-21T20:14:45.031Z,101061.09
2022-08-21T20:17:15.229Z,101073.72
2022-08-21T20:19:44.325Z,101067.09
2022-08-21T20:22:12.157Z,101057.91
2022-08-21T20:24:42.049Z,101078.47
2022-08-21T20:27:19.145Z,101074.47
2022-08-21T20:29:47.047Z,101072.09
2022-08-21T20:32:17.491Z,101077.16
2022-08-21T20:34:45.022Z,101077.78
2022-08-21T20:37:12.748Z,101084.19
2022-08-21T20:39:41.081Z,101059.47
2022-08-21T20:42:10.502Z,101076.03
2022-08-21T20:44:37.929Z,101065.78
2022-08-21T20:47:14.139Z,101058.66
2022-08-21T20:49:53.402Z,101069.56
2022-08-21T20:52:22.959Z,101059.34
2022-08-21T20:55:02.152Z,101052.50
2022-08-21T20:57:46.345Z,101060.16
2022-08-21T21:00:21.647Z,101067.09
2022-08-21T21:03:42.370Z,101062.25
2022-08-21T21:06:25.669Z,101071.38
2022-08-21T21:09:09.833Z,101067.69
2022-08-21T21:11:43.237Z,101072.38
2022-08-21T21:14:23.382Z,101069.31
2022-08-21T21:16:56.944Z,101071.25
2022-08-21T21:19:42.635Z,101068.72
2022-08-21T21:22:31.294Z,101073.16
2022-08-21T21:25:15.354Z,101065.66
2022-08-21T21:27:58.376Z,101072.03
2022-08-21T21:30:37.435Z,101067.22
2022-08-21T21:33:04.810Z,101068.63
2022-08-21T21:35:55.548Z,101084.53
2022-08-21T21:38:53.436Z,101092.75
2022-08-21T21:41:54.348Z,101087.97
2022-08-21T21:44:52.488Z,101094.13
2022-08-21T21:48:10.265Z,101088.31
2022-08-21T21:51:30.977Z,101090.69
2022-08-21T21:54:51.899Z,101095.09
2022-08-21T21:57:52.872Z,101095.63
2022-08-21T22:00:28.352Z,101095.78
2022-08-21T22:03:44.122Z,101108.44
2022-08-21T22:06:24.910Z,101092.88
2022-08-21T22:09:09.340Z,101098.00
2022-08-21T22:12:17.781Z,101102.63
2022-08-21T22:14:47.246Z,101103.13
2022-08-21T22:17:46.986Z,101112.34
2022-08-21T22:20:27.488Z,101109.09
2022-08-21T22:22:56.857Z,101107.69
2022-08-21T22:25:30.394Z,101104.13
2022-08-21T22:28:09.871Z,101108.69
2022-08-21T22:30:46.677Z,101095.50
2022-08-21T22:33:31.834Z,101102.13
2022-08-21T22:35:58.895Z,101118.19
2022-08-21T22:38:39.551Z,101114.53
2022-08-21T22:41:22.924Z,101124.25
2022-08-21T22:44:01.744Z,101123.38
2022-08-21T22:46:43.469Z,101125.53
2022-08-21T22:49:21.822Z,101118.09
2022-08-21T22:52:06.885Z,101117.69
2022-08-21T22:54:45.307Z,101128.91
2022-08-21T22:57:30.166Z,101119.13
2022-08-21T23:00:40.794Z,101125.28
2022-08-21T23:03:11.196Z,101124.41
2022-08-21T23:05:44.477Z,101140.13
2022-08-21T23:08:37.373Z,101140.25
2022-08-21T23:11:15.103Z,101135.09
2022-08-21T23:13:50.015Z,101128.72
2022-08-21T23:16:56.556Z,101133.00
2022-08-21T23:19:42.981Z,101130.91
2022-08-21T23:22:19.591Z,101131.56
2022-08-21T23:25:32.350Z,101129.59
2022-08-21T23:28:32.812Z,101139.50
2022-08-21T23:31:39.547Z,101130.53
2022-08-21T23:34:49.003Z,101121.81
2022-08-21T23:37:51.735Z,101118.56
2022-08-21T23:40:50.971Z,101125.50
2022-08-21T23:43:40.842Z,101129.03
2022-08-21T23:49:47.084Z,101130.13
2022-08-21T23:56:11.912Z,101123.56
2022-08-21T23:59:22.772Z,101122.69
